Terminal Aerodrome Forecast
Issued by NWS North Platte, NE

Home | Current Version | Previous Version | Text Only | Print | Product List | Glossary On
Versions: 1 2 3 4 5 6 7 8 9 10 11 12
162
FTUS43 KLBF 202331
TAFLBF
TAF
KLBF 202331Z 2100/2124 04007KT P6SM BKN250
     FM211200 02010G18KT P6SM OVC035
     FM211500 03011G19KT P6SM OVC015
     FM211600 03014G23KT P6SM VCSH OVC008
     FM211800 03016G24KT 3SM -SN BLSN OVC003
     FM212000 02016G24KT 2SM -SN BLSN OVC003
      TEMPO 2121/2124 1/2SM SN BLSN VV002=

USA.gov is the U.S. government's official web portal to all federal, state and local government web resources and services.